sensor_id;sensor_type;location;lat;lon;timestamp;pressure;altitude;pressure_sealevel;temperature;humidity
22241;BME280;11289;52.524;13.694;2024-02-15T00:00:37;101146.31;;;8.24;100.00
22241;BME280;11289;52.524;13.694;2024-02-15T00:03:03;101134.72;;;8.22;100.00
22241;BME280;11289;52.524;13.694;2024-02-15T00:05:33;101142.41;;;8.25;100.00
22241;BME280;11289;52.524;13.694;2024-02-15T00:08:02;101137.72;;;8.25;100.00
22241;BME280;11289;52.524;13.694;2024-02-15T00:10:28;101134.72;;;8.22;100.00
22241;BME280;11289;52.524;13.694;2024-02-15T00:12:54;101140.56;;;8.20;100.00
22241;BME280;11289;52.524;13.694;2024-02-15T00:15:20;101136.38;;;8.23;100.00
22241;BME280;11289;52.524;13.694;2024-02-15T00:17:46;101130.91;;;8.17;100.00
22241;BME280;11289;52.524;13.694;2024-02-15T00:20:13;101138.03;;;8.24;100.00
22241;BME280;11289;52.524;13.694;2024-02-15T00:22:39;101133.38;;;8.19;100.00
22241;BME280;11289;52.524;13.694;2024-02-15T00:25:08;101130.31;;;8.21;100.00
22241;BME280;11289;52.524;13.694;2024-02-15T00:27:36;101128.66;;;8.19;100.00
22241;BME280;11289;52.524;13.694;2024-02-15T00:30:03;101132.25;;;8.20;100.00
22241;BME280;11289;52.524;13.694;2024-02-15T00:32:30;101138.91;;;8.19;100.00
22241;BME280;11289;52.524;13.694;2024-02-15T00:34:56;101135.63;;;8.17;100.00
22241;BME280;11289;52.524;13.694;2024-02-15T00:37:22;101129.59;;;8.15;100.00
22241;BME280;11289;52.524;13.694;2024-02-15T00:39:48;101126.81;;;8.15;100.00
22241;BME280;11289;52.524;13.694;2024-02-15T00:42:14;101130.41;;;8.15;100.00
22241;BME280;11289;52.524;13.694;2024-02-15T00:44:41;101130.09;;;8.17;100.00
22241;BME280;11289;52.524;13.694;2024-02-15T00:47:09;101125.97;;;8.14;100.00
22241;BME280;11289;52.524;13.694;2024-02-15T00:49:37;101133.47;;;8.14;100.00
22241;BME280;11289;52.524;13.694;2024-02-15T00:52:03;101137.59;;;8.16;100.00
22241;BME280;11289;52.524;13.694;2024-02-15T00:54:29;101143.63;;;8.18;100.00
22241;BME280;11289;52.524;13.694;2024-02-15T00:56:55;101137.59;;;8.16;100.00
22241;BME280;11289;52.524;13.694;2024-02-15T00:59:21;101135.41;;;8.13;100.00
22241;BME280;11289;52.524;13.694;2024-02-15T01:01:47;101137.28;;;8.18;100.00
22241;BME280;11289;52.524;13.694;2024-02-15T01:04:13;101135.63;;;8.17;100.00
22241;BME280;11289;52.524;13.694;2024-02-15T01:06:39;101142.81;;;8.18;100.00
22241;BME280;11289;52.524;13.694;2024-02-15T01:09:07;101138.41;;;8.17;100.00
22241;BME280;11289;52.524;13.694;2024-02-15T01:11:34;101134.81;;;8.16;100.00
22241;BME280;11289;52.524;13.694;2024-02-15T01:14:01;101141.38;;;8.21;100.00
22241;BME280;11289;52.524;13.694;2024-02-15T01:16:27;101129.47;;;8.20;100.00
22241;BME280;11289;52.524;13.694;2024-02-15T01:18:53;101138.91;;;8.19;100.00
22241;BME280;11289;52.524;13.694;2024-02-15T01:21:19;101131.13;;;8.21;100.00
22241;BME280;11289;52.524;13.694;2024-02-15T01:23:45;101135.84;;;8.21;100.00
22241;BME280;11289;52.524;13.694;2024-02-15T01:26:12;101130.31;;;8.21;100.00
22241;BME280;11289;52.524;13.694;2024-02-15T01:28:38;101128.38;;;8.21;100.00
22241;BME280;11289;52.524;13.694;2024-02-15T01:31:04;101127.25;;;8.22;100.00
22241;BME280;11289;52.524;13.694;2024-02-15T01:33:32;101122.72;;;8.12;100.00
22241;BME280;11289;52.524;13.694;2024-02-15T01:35:58;101120.88;;;8.22;100.00
22241;BME280;11289;52.524;13.694;2024-02-15T01:38:24;101123.88;;;8.25;100.00
22241;BME280;11289;52.524;13.694;2024-02-15T01:40:50;101125.00;;;8.24;100.00
22241;BME280;11289;52.524;13.694;2024-02-15T01:43:16;101125.00;;;8.24;100.00
22241;BME280;11289;52.524;13.694;2024-02-15T01:45:42;101126.94;;;8.24;100.00
22241;BME280;11289;52.524;13.694;2024-02-15T01:48:08;101117.19;;;8.26;100.00
22241;BME280;11289;52.524;13.694;2024-02-15T01:50:34;101117.19;;;8.26;100.00
22241;BME280;11289;52.524;13.694;2024-02-15T01:53:01;101132.06;;;8.30;100.00
22241;BME280;11289;52.524;13.694;2024-02-15T01:55:30;101123.28;;;8.28;100.00
22241;BME280;11289;52.524;13.694;2024-02-15T01:57:56;101118.84;;;8.27;100.00
22241;BME280;11289;52.524;13.694;2024-02-15T02:00:22;101121.00;;;8.30;100.00
22241;BME280;11289;52.524;13.694;2024-02-15T02:02:50;101114.16;;;8.28;100.00
22241;BME280;11289;52.524;13.694;2024-02-15T02:05:17;101119.91;;;8.31;100.00
22241;BME280;11289;52.524;13.694;2024-02-15T02:07:43;101120.19;;;8.30;100.00
22241;BME280;11289;52.524;13.694;2024-02-15T02:10:09;101106.13;;;8.26;100.00
22241;BME280;11289;52.524;13.694;2024-02-15T02:12:37;101113.56;;;8.31;100.00
22241;BME280;11289;52.524;13.694;2024-02-15T02:15:06;101108.63;;;8.28;100.00
22241;BME280;11289;52.524;13.694;2024-02-15T02:17:32;101111.28;;;8.33;100.00
22241;BME280;11289;52.524;13.694;2024-02-15T02:19:59;101109.94;;;8.30;100.00
22241;BME280;11289;52.524;13.694;2024-02-15T02:22:25;101110.47;;;8.32;100.00
22241;BME280;11289;52.524;13.694;2024-02-15T02:25:07;101114.56;;;8.35;100.00
22241;BME280;11289;52.524;13.694;2024-02-15T02:27:35;101104.63;;;8.34;100.00
22241;BME280;11289;52.524;13.694;2024-02-15T02:30:11;101108.81;;;8.31;100.00
22241;BME280;11289;52.524;13.694;2024-02-15T02:32:41;101107.41;;;8.34;100.00
22241;BME280;11289;52.524;13.694;2024-02-15T02:35:07;101103.09;;;8.28;100.00
22241;BME280;11289;52.524;13.694;2024-02-15T02:37:33;101101.66;;;8.30;100.00
22241;BME280;11289;52.524;13.694;2024-02-15T02:40:04;101107.41;;;8.34;100.00
22241;BME280;11289;52.524;13.694;2024-02-15T02:42:30;101091.50;;;8.26;100.00
22241;BME280;11289;52.524;13.694;2024-02-15T02:44:56;101109.88;;;8.35;100.00
22241;BME280;11289;52.524;13.694;2024-02-15T02:47:22;101107.09;;;8.35;100.00
22241;BME280;11289;52.524;13.694;2024-02-15T02:49:48;101095.81;;;8.32;100.00
22241;BME280;11289;52.524;13.694;2024-02-15T02:52:14;101105.16;;;8.36;100.00
22241;BME280;11289;52.524;13.694;2024-02-15T02:54:40;101111.78;;;8.35;100.00
22241;BME280;11289;52.524;13.694;2024-02-15T02:57:07;101105.16;;;8.36;100.00
22241;BME280;11289;52.524;13.694;2024-02-15T02:59:34;101113.97;;;8.38;100.00
22241;BME280;11289;52.524;13.694;2024-02-15T03:02:01;101112.84;;;8.39;100.00
22241;BME280;11289;52.524;13.694;2024-02-15T03:04:29;101104.84;;;8.37;100.00
22241;BME280;11289;52.524;13.694;2024-02-15T03:06:55;101109.25;;;8.39;100.00
22241;BME280;11289;52.524;13.694;2024-02-15T03:09:23;101112.84;;;8.39;100.00
22241;BME280;11289;52.524;13.694;2024-02-15T03:11:49;101110.69;;;8.36;100.00
22241;BME280;11289;52.524;13.694;2024-02-15T03:14:15;101113.97;;;8.38;100.00
22241;BME280;11289;52.524;13.694;2024-02-15T03:16:41;101105.16;;;8.36;100.00
22241;BME280;11289;52.524;13.694;2024-02-15T03:19:07;101099.41;;;8.32;100.00
22241;BME280;11289;52.524;13.694;2024-02-15T03:21:34;101101.25;;;8.37;100.00
22241;BME280;11289;52.524;13.694;2024-02-15T03:24:01;101099.00;;;8.39;100.00
22241;BME280;11289;52.524;13.694;2024-02-15T03:26:32;101102.81;;;8.43;100.00
22241;BME280;11289;52.524;13.694;2024-02-15T03:29:06;101094.91;;;8.36;100.00
22241;BME280;11289;52.524;13.694;2024-02-15T03:31:34;101105.56;;;8.43;100.00
22241;BME280;11289;52.524;13.694;2024-02-15T03:34:05;101103.09;;;8.42;100.00
22241;BME280;11289;52.524;13.694;2024-02-15T03:36:31;101104.75;;;8.43;100.00
22241;BME280;11289;52.524;13.694;2024-02-15T03:38:57;101110.28;;;8.43;100.00
22241;BME280;11289;52.524;13.694;2024-02-15T03:41:27;101113.59;;;8.45;100.00
22241;BME280;11289;52.524;13.694;2024-02-15T03:43:53;101103.91;;;8.42;100.00
22241;BME280;11289;52.524;13.694;2024-02-15T03:46:19;101113.28;;;8.46;100.00
22241;BME280;11289;52.524;13.694;2024-02-15T03:48:45;101108.66;;;8.42;100.00
22241;BME280;11289;52.524;13.694;2024-02-15T03:51:16;101118.31;;;8.44;100.00
22241;BME280;11289;52.524;13.694;2024-02-15T03:53:43;101113.06;;;8.43;100.00
22241;BME280;11289;52.524;13.694;2024-02-15T03:56:09;101118.81;;;8.46;100.00
22241;BME280;11289;52.524;13.694;2024-02-15T03:58:35;101115.44;;;8.49;100.00
22241;BME280;11289;52.524;13.694;2024-02-15T04:01:02;101108.06;;;8.45;100.00
22241;BME280;11289;52.524;13.694;2024-02-15T04:03:32;101117.91;;;8.51;100.00
22241;BME280;11289;52.524;13.694;2024-02-15T04:06:00;101119.88;;;8.50;100.00
22241;BME280;11289;52.524;13.694;2024-02-15T04:08:26;101108.28;;;8.48;100.00
22241;BME280;11289;52.524;13.694;2024-02-15T04:10:52;101111.25;;;8.52;100.00
22241;BME280;11289;52.524;13.694;2024-02-15T04:13:19;101115.13;;;8.51;100.00
22241;BME280;11289;52.524;13.694;2024-02-15T04:15:45;101105.72;;;8.52;100.00
22241;BME280;11289;52.524;13.694;2024-02-15T04:18:13;101108.19;;;8.53;100.00
22241;BME280;11289;52.524;13.694;2024-02-15T04:20:39;101114.88;;;8.52;100.00
22241;BME280;11289;52.524;13.694;2024-02-15T04:23:12;101105.41;;;8.53;100.00
22241;BME280;11289;52.524;13.694;2024-02-15T04:25:38;101117.31;;;8.54;100.00
22241;BME280;11289;52.524;13.694;2024-02-15T04:28:04;101115.69;;;8.53;100.00
22241;BME280;11289;52.524;13.694;2024-02-15T04:30:30;101112.59;;;8.54;100.00
22241;BME280;11289;52.524;13.694;2024-02-15T04:32:56;101109.84;;;8.54;100.00
22241;BME280;11289;52.524;13.694;2024-02-15T04:35:22;101115.38;;;8.54;100.00
22241;BME280;11289;52.524;13.694;2024-02-15T04:37:49;101113.72;;;8.53;100.00
22241;BME280;11289;52.524;13.694;2024-02-15T04:40:17;101109.34;;;8.52;100.00
22241;BME280;11289;52.524;13.694;2024-02-15T04:42:44;101107.16;;;8.49;100.00
22241;BME280;11289;52.524;13.694;2024-02-15T04:45:12;101107.06;;;8.54;100.00
22241;BME280;11289;52.524;13.694;2024-02-15T04:47:41;101095.78;;;8.51;100.00
22241;BME280;11289;52.524;13.694;2024-02-15T04:50:07;101099.88;;;8.53;100.00
22241;BME280;11289;52.524;13.694;2024-02-15T04:52:34;101098.75;;;8.54;100.00
22241;BME280;11289;52.524;13.694;2024-02-15T04:55:01;101092.91;;;8.56;100.00
22241;BME280;11289;52.524;13.694;2024-02-15T04:57:30;101106.75;;;8.56;100.00
22241;BME280;11289;52.524;13.694;2024-02-15T04:59:56;101098.75;;;8.54;100.00
22241;BME280;11289;52.524;13.694;2024-02-15T05:02:22;101101.53;;;8.54;100.00
22241;BME280;11289;52.524;13.694;2024-02-15T05:04:50;101100.19;;;8.52;100.00
22241;BME280;11289;52.524;13.694;2024-02-15T05:07:22;101106.44;;;8.58;100.00
22241;BME280;11289;52.524;13.694;2024-02-15T05:09:49;101104.00;;;8.56;100.00
22241;BME280;11289;52.524;13.694;2024-02-15T05:12:22;101110.03;;;8.58;100.00
22241;BME280;11289;52.524;13.694;2024-02-15T05:14:49;101112.78;;;8.58;100.00
22241;BME280;11289;52.524;13.694;2024-02-15T05:17:19;101108.09;;;8.59;100.00
22241;BME280;11289;52.524;13.694;2024-02-15T05:19:45;101115.56;;;8.58;100.00
22241;BME280;11289;52.524;13.694;2024-02-15T05:22:11;101115.56;;;8.58;100.00
22241;BME280;11289;52.524;13.694;2024-02-15T05:24:37;101118.06;;;8.60;100.00
22241;BME280;11289;52.524;13.694;2024-02-15T05:27:04;101125.50;;;8.59;100.00
22241;BME280;11289;52.524;13.694;2024-02-15T05:29:31;101119.97;;;8.59;100.00
22241;BME280;11289;52.524;13.694;2024-02-15T05:32:02;101127.66;;;8.62;100.00
22241;BME280;11289;52.524;13.694;2024-02-15T05:34:28;101118.56;;;8.62;100.00
22241;BME280;11289;52.524;13.694;2024-02-15T05:36:56;101112.22;;;8.61;100.00
22241;BME280;11289;52.524;13.694;2024-02-15T05:39:22;101116.28;;;8.64;100.00
22241;BME280;11289;52.524;13.694;2024-02-15T05:41:49;101106.13;;;8.59;100.00
22241;BME280;11289;52.524;13.694;2024-02-15T05:44:15;101114.66;;;8.63;100.00
22241;BME280;11289;52.524;13.694;2024-02-15T05:46:45;101113.03;;;8.62;100.00
22241;BME280;11289;52.524;13.694;2024-02-15T05:49:11;101115.78;;;8.62;100.00
22241;BME280;11289;52.524;13.694;2024-02-15T05:51:41;101118.44;;;8.67;100.00
22241;BME280;11289;52.524;13.694;2024-02-15T05:54:07;101110.75;;;8.64;100.00
22241;BME280;11289;52.524;13.694;2024-02-15T05:56:33;101118.97;;;8.69;100.00
22241;BME280;11289;52.524;13.694;2024-02-15T05:58:59;101111.78;;;8.68;100.00
22241;BME280;11289;52.524;13.694;2024-02-15T06:01:28;101127.78;;;8.71;100.00
22241;BME280;11289;52.524;13.694;2024-02-15T06:03:55;101114.56;;;8.68;100.00
22241;BME280;11289;52.524;13.694;2024-02-15T06:06:21;101128.63;;;8.71;100.00
22241;BME280;11289;52.524;13.694;2024-02-15T06:08:49;101128.31;;;8.73;100.00
22241;BME280;11289;52.524;13.694;2024-02-15T06:11:18;101125.56;;;8.73;100.00
22241;BME280;11289;52.524;13.694;2024-02-15T06:13:45;101121.75;;;8.69;100.00
22241;BME280;11289;52.524;13.694;2024-02-15T06:16:11;101122.56;;;8.69;100.00
22241;BME280;11289;52.524;13.694;2024-02-15T06:18:37;101130.25;;;8.73;100.00
22241;BME280;11289;52.524;13.694;2024-02-15T06:21:03;101121.63;;;8.74;100.00
22241;BME280;11289;52.524;13.694;2024-02-15T06:23:30;101129.94;;;8.74;100.00
22241;BME280;11289;52.524;13.694;2024-02-15T06:25:56;101133.25;;;8.76;100.00
22241;BME280;11289;52.524;13.694;2024-02-15T06:28:29;101134.91;;;8.77;100.00
22241;BME280;11289;52.524;13.694;2024-02-15T06:31:13;101130.97;;;8.78;100.00
22241;BME280;11289;52.524;13.694;2024-02-15T06:33:58;101127.16;;;8.74;100.00
22241;BME280;11289;52.524;13.694;2024-02-15T06:36:50;101136.50;;;8.78;100.00
22241;BME280;11289;52.524;13.694;2024-02-15T06:39:34;101145.66;;;8.79;100.00
22241;BME280;11289;52.524;13.694;2024-02-15T06:42:14;101141.75;;;8.80;100.00
22241;BME280;11289;52.524;13.694;2024-02-15T06:44:43;101159.19;;;8.80;100.00
22241;BME280;11289;52.524;13.694;2024-02-15T06:47:09;101150.88;;;8.80;100.00
22241;BME280;11289;52.524;13.694;2024-02-15T06:49:37;101146.47;;;8.79;100.00
22241;BME280;11289;52.524;13.694;2024-02-15T06:52:08;101142.28;;;8.82;100.00
22241;BME280;11289;52.524;13.694;2024-02-15T06:54:38;101152.50;;;8.81;100.00
22241;BME280;11289;52.524;13.694;2024-02-15T06:57:05;101151.94;;;8.84;100.00
22241;BME280;11289;52.524;13.694;2024-02-15T06:59:32;101150.78;;;8.85;100.00
22241;BME280;11289;52.524;13.694;2024-02-15T07:02:01;101154.69;;;8.84;100.00
22241;BME280;11289;52.524;13.694;2024-02-15T07:04:30;101152.72;;;8.85;100.00
22241;BME280;11289;52.524;13.694;2024-02-15T07:06:58;101149.16;;;8.84;100.00
22241;BME280;11289;52.524;13.694;2024-02-15T07:09:25;101160.13;;;8.89;100.00
22241;BME280;11289;52.524;13.694;2024-02-15T07:11:51;101164.72;;;8.94;100.00
22241;BME280;11289;52.524;13.694;2024-02-15T07:14:17;101158.38;;;8.94;100.00
22241;BME280;11289;52.524;13.694;2024-02-15T07:16:47;101166.38;;;8.95;100.00
22241;BME280;11289;52.524;13.694;2024-02-15T07:19:13;101162.50;;;8.96;100.00
22241;BME280;11289;52.524;13.694;2024-02-15T07:21:41;101167.41;;;8.99;100.00
22241;BME280;11289;52.524;13.694;2024-02-15T07:24:08;101162.19;;;8.98;100.00
22241;BME280;11289;52.524;13.694;2024-02-15T07:26:36;101165.16;;;9.01;100.00
22241;BME280;11289;52.524;13.694;2024-02-15T07:29:02;101171.22;;;9.03;100.00
22241;BME280;11289;52.524;13.694;2024-02-15T07:31:32;101175.41;;;9.01;100.00
22241;BME280;11289;52.524;13.694;2024-02-15T07:33:59;101168.13;;;9.05;100.00
22241;BME280;11289;52.524;13.694;2024-02-15T07:36:25;101172.03;;;9.04;100.00
22241;BME280;11289;52.524;13.694;2024-02-15T07:38:53;101161.75;;;9.04;100.00
22241;BME280;11289;52.524;13.694;2024-02-15T07:41:23;101176.44;;;9.05;100.00
22241;BME280;11289;52.524;13.694;2024-02-15T07:43:49;101170.28;;;9.08;100.00
22241;BME280;11289;52.524;13.694;2024-02-15T07:46:16;101174.09;;;9.12;100.00
22241;BME280;11289;52.524;13.694;2024-02-15T07:48:43;101168.88;;;9.11;100.00
22241;BME280;11289;52.524;13.694;2024-02-15T07:51:15;101174.28;;;9.16;100.00
22241;BME280;11289;52.524;13.694;2024-02-15T07:53:42;101170.09;;;9.18;100.00
22241;BME280;11289;52.524;13.694;2024-02-15T07:56:12;101163.44;;;9.19;100.00
22241;BME280;11289;52.524;13.694;2024-02-15T07:58:42;101173.03;;;9.22;100.00
22241;BME280;11289;52.524;13.694;2024-02-15T08:01:12;101173.88;;;9.22;100.00
22241;BME280;11289;52.524;13.694;2024-02-15T08:03:40;101175.00;;;9.21;100.00
22241;BME280;11289;52.524;13.694;2024-02-15T08:06:13;101180.56;;;9.21;100.00
22241;BME280;11289;52.524;13.694;2024-02-15T08:08:44;101173.34;;;9.20;100.00
22241;BME280;11289;52.524;13.694;2024-02-15T08:11:12;101171.13;;;9.22;100.00
22241;BME280;11289;52.524;13.694;2024-02-15T08:13:51;101172.16;;;9.27;100.00
22241;BME280;11289;52.524;13.694;2024-02-15T08:16:21;101171.00;;;9.28;100.00
22241;BME280;11289;52.524;13.694;2024-02-15T08:18:53;101177.56;;;9.32;100.00
22241;BME280;11289;52.524;13.694;2024-02-15T08:21:29;101175.81;;;9.36;100.00
22241;BME280;11289;52.524;13.694;2024-02-15T08:24:05;101175.19;;;9.39;100.00
22241;BME280;11289;52.524;13.694;2024-02-15T08:26:40;101172.34;;;9.44;100.00
22241;BME280;11289;52.524;13.694;2024-02-15T08:29:09;101182.59;;;9.44;100.00
22241;BME280;11289;52.524;13.694;2024-02-15T08:31:35;101176.09;;;9.48;100.00
22241;BME280;11289;52.524;13.694;2024-02-15T08:34:04;101179.91;;;9.52;100.00
22241;BME280;11289;52.524;13.694;2024-02-15T08:36:31;101179.59;;;9.54;100.00
22241;BME280;11289;52.524;13.694;2024-02-15T08:38:57;101183.72;;;9.56;100.00
22241;BME280;11289;52.524;13.694;2024-02-15T08:41:23;101179.00;;;9.57;100.00
22241;BME280;11289;52.524;13.694;2024-02-15T08:43:52;101185.22;;;9.63;100.00
22241;BME280;11289;52.524;13.694;2024-02-15T08:46:19;101182.69;;;9.66;100.00
22241;BME280;11289;52.524;13.694;2024-02-15T08:48:48;101184.00;;;9.69;100.00
22241;BME280;11289;52.524;13.694;2024-02-15T08:51:14;101169.63;;;9.67;100.00
22241;BME280;11289;52.524;13.694;2024-02-15T08:53:39;101178.84;;;9.76;100.00
22241;BME280;11289;52.524;13.694;2024-02-15T08:56:06;101182.13;;;9.78;100.00
22241;BME280;11289;52.524;13.694;2024-02-15T08:58:31;101179.34;;;9.78;100.00
22241;BME280;11289;52.524;13.694;2024-02-15T09:00:58;101185.22;;;9.76;100.00
22241;BME280;11289;52.524;13.694;2024-02-15T09:03:24;101183.56;;;9.75;100.00
22241;BME280;11289;52.524;13.694;2024-02-15T09:05:50;101182.13;;;9.78;100.00
22241;BME280;11289;52.524;13.694;2024-02-15T09:08:16;101187.03;;;9.81;100.00
22241;BME280;11289;52.524;13.694;2024-02-15T09:10:49;101185.94;;;9.82;100.00
22241;BME280;11289;52.524;13.694;2024-02-15T09:13:15;101177.28;;;9.84;100.00
22241;BME280;11289;52.524;13.694;2024-02-15T09:15:41;101188.88;;;9.86;100.00
22241;BME280;11289;52.524;13.694;2024-02-15T09:18:08;101183.34;;;9.86;100.00
22241;BME280;11289;52.524;13.694;2024-02-15T09:20:35;101175.16;;;9.81;100.00
22241;BME280;11289;52.524;13.694;2024-02-15T09:23:03;101174.69;;;9.87;100.00
22241;BME280;11289;52.524;13.694;2024-02-15T09:25:38;101181.78;;;9.93;100.00
22241;BME280;11289;52.524;13.694;2024-02-15T09:28:04;101178.38;;;9.97;100.00
22241;BME280;11289;52.524;13.694;2024-02-15T09:30:30;101168.72;;;9.94;100.00
22241;BME280;11289;52.524;13.694;2024-02-15T09:32:57;101179.41;;;10.01;100.00
22241;BME280;11289;52.524;13.694;2024-02-15T09:35:23;101176.81;;;10.04;100.00
22241;BME280;11289;52.524;13.694;2024-02-15T09:37:49;101179.47;;;10.09;100.00
22241;BME280;11289;52.524;13.694;2024-02-15T09:40:17;101166.91;;;10.12;100.00
22241;BME280;11289;52.524;13.694;2024-02-15T09:42:44;101168.63;;;10.22;100.00
22241;BME280;11289;52.524;13.694;2024-02-15T09:45:14;101168.19;;;10.28;100.00
22241;BME280;11289;52.524;13.694;2024-02-15T09:47:44;101175.38;;;10.29;100.00
22241;BME280;11289;52.524;13.694;2024-02-15T09:50:12;101173.53;;;10.39;100.00
22241;BME280;11289;52.524;13.694;2024-02-15T09:52:40;101182.56;;;10.44;100.00
22241;BME280;11289;52.524;13.694;2024-02-15T09:55:10;101192.69;;;10.49;100.00
22241;BME280;11289;52.524;13.694;2024-02-15T09:57:42;101193.19;;;10.51;100.00
22241;BME280;11289;52.524;13.694;2024-02-15T10:00:08;101187.47;;;10.48;100.00
22241;BME280;11289;52.524;13.694;2024-02-15T10:02:40;101196.91;;;10.47;100.00
22241;BME280;11289;52.524;13.694;2024-02-15T10:05:07;101205.78;;;10.49;100.00
22241;BME280;11289;52.524;13.694;2024-02-15T10:07:41;101202.47;;;10.47;100.00
22241;BME280;11289;52.524;13.694;2024-02-15T10:10:22;101204.44;;;10.46;100.00
22241;BME280;11289;52.524;13.694;2024-02-15T10:12:49;101209.47;;;10.44;100.00
22241;BME280;11289;52.524;13.694;2024-02-15T10:17:58;101205.72;;;10.40;100.00
22241;BME280;11289;52.524;13.694;2024-02-15T10:20:24;101208.47;;;10.40;100.00
22241;BME280;11289;52.524;13.694;2024-02-15T10:23:09;101191.63;;;10.36;100.00
22241;BME280;11289;52.524;13.694;2024-02-15T10:25:36;101206.19;;;10.42;100.00
22241;BME280;11289;52.524;13.694;2024-02-15T10:28:03;101201.78;;;10.41;100.00
22241;BME280;11289;52.524;13.694;2024-02-15T10:30:37;101193.97;;;10.43;100.00
22241;BME280;11289;52.524;13.694;2024-02-15T10:33:04;101195.91;;;10.42;100.00
22241;BME280;11289;52.524;13.694;2024-02-15T10:35:31;101188.41;;;10.43;100.00
22241;BME280;11289;52.524;13.694;2024-02-15T10:38:08;101186.66;;;10.47;100.00
22241;BME280;11289;52.524;13.694;2024-02-15T10:40:34;101187.16;;;10.49;100.00
22241;BME280;11289;52.524;13.694;2024-02-15T10:43:03;101190.09;;;10.53;100.00
22241;BME280;11289;52.524;13.694;2024-02-15T10:45:30;101182.94;;;10.52;100.00
22241;BME280;11289;52.524;13.694;2024-02-15T10:47:56;101189.34;;;10.61;100.00
22241;BME280;11289;52.524;13.694;2024-02-15T10:50:24;101184.91;;;10.60;100.00
22241;BME280;11289;52.524;13.694;2024-02-15T10:52:58;101185.28;;;10.67;100.00
22241;BME280;11289;52.524;13.694;2024-02-15T10:58:32;101188.47;;;10.83;100.00
22241;BME280;11289;52.524;13.694;2024-02-15T11:01:06;101197.19;;;10.90;100.00
22241;BME280;11289;52.524;13.694;2024-02-15T11:03:43;101193.31;;;11.00;100.00
22241;BME280;11289;52.524;13.694;2024-02-15T11:06:14;101188.75;;;11.04;100.00
22241;BME280;11289;52.524;13.694;2024-02-15T11:08:42;101183.72;;;11.15;100.00
22241;BME280;11289;52.524;13.694;2024-02-15T11:11:10;101188.50;;;11.23;100.00
22241;BME280;11289;52.524;13.694;2024-02-15T11:13:40;101179.06;;;11.33;100.00
22241;BME280;11289;52.524;13.694;2024-02-15T11:16:08;101185.97;;;11.44;100.00
22241;BME280;11289;52.524;13.694;2024-02-15T11:18:45;101184.16;;;11.48;100.00
22241;BME280;11289;52.524;13.694;2024-02-15T11:21:15;101182.88;;;11.46;100.00
22241;BME280;11289;52.524;13.694;2024-02-15T11:23:42;101184.00;;;11.45;100.00
22241;BME280;11289;52.524;13.694;2024-02-15T11:26:08;101167.78;;;11.38;100.00
22241;BME280;11289;52.524;13.694;2024-02-15T11:28:36;101190.88;;;11.47;100.00
22241;BME280;11289;52.524;13.694;2024-02-15T11:31:02;101181.22;;;11.45;100.00
22241;BME280;11289;52.524;13.694;2024-02-15T11:33:33;101186.63;;;11.50;100.00
22241;BME280;11289;52.524;13.694;2024-02-15T11:36:10;101167.81;;;11.47;100.00
22241;BME280;11289;52.524;13.694;2024-02-15T11:38:38;101182.06;;;11.54;100.00
22241;BME280;11289;52.524;13.694;2024-02-15T11:41:11;101171.25;;;11.53;100.00
22241;BME280;11289;52.524;13.694;2024-02-15T11:46:18;101170.47;;;11.70;100.00
22241;BME280;11289;52.524;13.694;2024-02-15T11:48:48;101168.84;;;11.77;100.00
22241;BME280;11289;52.524;13.694;2024-02-15T11:51:36;101158.69;;;11.81;100.00
22241;BME280;11289;52.524;13.694;2024-02-15T11:54:12;101150.03;;;11.83;100.00
22241;BME280;11289;52.524;13.694;2024-02-15T11:59:13;101154.81;;;12.09;100.00
22241;BME280;11289;52.524;13.694;2024-02-15T12:01:58;101165.75;;;12.23;100.00
22241;BME280;11289;52.524;13.694;2024-02-15T12:04:43;101154.94;;;12.30;100.00
22241;BME280;11289;52.524;13.694;2024-02-15T12:07:30;101152.00;;;12.35;100.00
22241;BME280;11289;52.524;13.694;2024-02-15T12:10:18;101163.28;;;12.39;100.00
22241;BME280;11289;52.524;13.694;2024-02-15T12:13:03;101160.50;;;12.47;100.00
22241;BME280;11289;52.524;13.694;2024-02-15T12:16:00;101159.53;;;12.52;100.00
22241;BME280;11289;52.524;13.694;2024-02-15T12:18:45;101153.75;;;12.57;100.00
22241;BME280;11289;52.524;13.694;2024-02-15T12:21:16;101148.34;;;12.61;100.00
22241;BME280;11289;52.524;13.694;2024-02-15T12:23:44;101147.69;;;12.64;100.00
22241;BME280;11289;52.524;13.694;2024-02-15T12:26:11;101144.25;;;12.58;100.00
22241;BME280;11289;52.524;13.694;2024-02-15T12:28:41;101146.53;;;12.56;100.00
22241;BME280;11289;52.524;13.694;2024-02-15T12:31:08;101146.22;;;12.49;100.00
22241;BME280;11289;52.524;13.694;2024-02-15T12:33:35;101146.22;;;12.49;100.00
22241;BME280;11289;52.524;13.694;2024-02-15T12:36:07;101148.41;;;12.43;100.00
22241;BME280;11289;52.524;13.694;2024-02-15T12:38:34;101150.03;;;12.35;100.00
22241;BME280;11289;52.524;13.694;2024-02-15T12:41:23;101146.44;;;12.35;100.00
22241;BME280;11289;52.524;13.694;2024-02-15T12:43:52;101145.78;;;12.29;100.00
22241;BME280;11289;52.524;13.694;2024-02-15T12:46:19;101133.66;;;12.25;100.00
22241;BME280;11289;52.524;13.694;2024-02-15T12:48:45;101144.66;;;12.22;100.00
22241;BME280;11289;52.524;13.694;2024-02-15T12:51:15;101130.41;;;12.23;100.00
22241;BME280;11289;52.524;13.694;2024-02-15T12:53:42;101126.66;;;12.19;100.00
22241;BME280;11289;52.524;13.694;2024-02-15T12:56:08;101122.56;;;12.16;100.00